sensor_id;sensor_type;location;lat;lon;timestamp;temperature;humidity
19732;DHT22;10017;54.350;18.532;2022-12-07T00:00:02;1.70;99.90
19732;DHT22;10017;54.350;18.532;2022-12-07T00:02:34;1.70;99.90
19732;DHT22;10017;54.350;18.532;2022-12-07T00:05:11;1.70;99.90
19732;DHT22;10017;54.350;18.532;2022-12-07T00:07:43;1.70;99.90
19732;DHT22;10017;54.350;18.532;2022-12-07T00:10:17;1.70;99.90
19732;DHT22;10017;54.350;18.532;2022-12-07T00:12:49;1.70;99.90
19732;DHT22;10017;54.350;18.532;2022-12-07T00:15:21;1.70;99.90
19732;DHT22;10017;54.350;18.532;2022-12-07T00:17:53;1.70;99.90
19732;DHT22;10017;54.350;18.532;2022-12-07T00:20:25;1.80;99.90
19732;DHT22;10017;54.350;18.532;2022-12-07T00:22:57;1.70;99.90
19732;DHT22;10017;54.350;18.532;2022-12-07T00:25:29;1.70;99.90
19732;DHT22;10017;54.350;18.532;2022-12-07T00:28:01;1.70;99.90
19732;DHT22;10017;54.350;18.532;2022-12-07T00:30:33;1.70;99.90
19732;DHT22;10017;54.350;18.532;2022-12-07T00:33:05;1.70;99.90
19732;DHT22;10017;54.350;18.532;2022-12-07T00:35:37;1.70;99.90
19732;DHT22;10017;54.350;18.532;2022-12-07T00:38:09;1.70;99.90
19732;DHT22;10017;54.350;18.532;2022-12-07T00:40:40;1.70;99.90
19732;DHT22;10017;54.350;18.532;2022-12-07T00:43:12;1.70;99.90
19732;DHT22;10017;54.350;18.532;2022-12-07T00:45:44;1.70;99.90
19732;DHT22;10017;54.350;18.532;2022-12-07T00:48:18;1.70;99.90
19732;DHT22;10017;54.350;18.532;2022-12-07T00:50:50;1.70;99.90
19732;DHT22;10017;54.350;18.532;2022-12-07T00:53:22;1.70;99.90
19732;DHT22;10017;54.350;18.532;2022-12-07T00:55:54;1.70;99.90
19732;DHT22;10017;54.350;18.532;2022-12-07T00:58:27;1.70;99.90
19732;DHT22;10017;54.350;18.532;2022-12-07T01:01:00;1.80;99.90
19732;DHT22;10017;54.350;18.532;2022-12-07T01:03:35;1.70;99.90
19732;DHT22;10017;54.350;18.532;2022-12-07T01:06:07;1.70;99.90
19732;DHT22;10017;54.350;18.532;2022-12-07T01:08:39;1.70;99.90
19732;DHT22;10017;54.350;18.532;2022-12-07T01:11:13;1.70;99.90
19732;DHT22;10017;54.350;18.532;2022-12-07T01:13:45;1.70;99.90
19732;DHT22;10017;54.350;18.532;2022-12-07T01:16:16;1.70;99.90
19732;DHT22;10017;54.350;18.532;2022-12-07T01:18:49;1.70;99.90
19732;DHT22;10017;54.350;18.532;2022-12-07T01:21:28;1.70;99.90
19732;DHT22;10017;54.350;18.532;2022-12-07T01:24:00;1.80;99.90
19732;DHT22;10017;54.350;18.532;2022-12-07T01:26:32;1.80;99.90
19732;DHT22;10017;54.350;18.532;2022-12-07T01:29:06;1.80;99.90
19732;DHT22;10017;54.350;18.532;2022-12-07T01:31:38;1.80;99.90
19732;DHT22;10017;54.350;18.532;2022-12-07T01:34:10;1.80;99.90
19732;DHT22;10017;54.350;18.532;2022-12-07T01:36:41;1.80;99.90
19732;DHT22;10017;54.350;18.532;2022-12-07T01:39:13;1.80;99.90
19732;DHT22;10017;54.350;18.532;2022-12-07T01:41:45;1.80;99.90
19732;DHT22;10017;54.350;18.532;2022-12-07T01:44:20;1.80;99.90
19732;DHT22;10017;54.350;18.532;2022-12-07T01:46:53;1.80;99.90
19732;DHT22;10017;54.350;18.532;2022-12-07T01:52:08;1.80;99.90
19732;DHT22;10017;54.350;18.532;2022-12-07T01:54:42;1.80;99.90
19732;DHT22;10017;54.350;18.532;2022-12-07T01:57:14;1.80;99.90
19732;DHT22;10017;54.350;18.532;2022-12-07T01:59:47;1.80;99.90
19732;DHT22;10017;54.350;18.532;2022-12-07T02:02:23;1.80;99.90
19732;DHT22;10017;54.350;18.532;2022-12-07T02:04:56;1.80;99.90
19732;DHT22;10017;54.350;18.532;2022-12-07T02:07:28;1.90;99.90
19732;DHT22;10017;54.350;18.532;2022-12-07T02:10:14;1.90;99.90
19732;DHT22;10017;54.350;18.532;2022-12-07T02:12:52;1.90;99.90
19732;DHT22;10017;54.350;18.532;2022-12-07T02:15:29;1.90;99.90
19732;DHT22;10017;54.350;18.532;2022-12-07T02:26:56;1.90;99.90
19732;DHT22;10017;54.350;18.532;2022-12-07T02:31:51;1.90;99.90
19732;DHT22;10017;54.350;18.532;2022-12-07T02:37:01;1.90;99.90
19732;DHT22;10017;54.350;18.532;2022-12-07T02:39:46;1.90;99.90
19732;DHT22;10017;54.350;18.532;2022-12-07T02:42:23;1.90;99.90
19732;DHT22;10017;54.350;18.532;2022-12-07T02:44:56;1.90;99.90
19732;DHT22;10017;54.350;18.532;2022-12-07T02:47:28;2.00;99.90
19732;DHT22;10017;54.350;18.532;2022-12-07T02:50:03;2.00;99.90
19732;DHT22;10017;54.350;18.532;2022-12-07T02:52:35;2.00;99.90
19732;DHT22;10017;54.350;18.532;2022-12-07T02:55:09;2.00;99.90
19732;DHT22;10017;54.350;18.532;2022-12-07T02:57:45;2.10;99.90
19732;DHT22;10017;54.350;18.532;2022-12-07T03:00:20;2.10;99.90
19732;DHT22;10017;54.350;18.532;2022-12-07T03:03:00;2.10;99.90
19732;DHT22;10017;54.350;18.532;2022-12-07T03:10:43;2.10;99.90
19732;DHT22;10017;54.350;18.532;2022-12-07T03:18:33;2.20;99.90
19732;DHT22;10017;54.350;18.532;2022-12-07T03:21:09;2.20;99.90
19732;DHT22;10017;54.350;18.532;2022-12-07T03:23:43;2.20;99.90
19732;DHT22;10017;54.350;18.532;2022-12-07T03:26:17;2.20;99.90
19732;DHT22;10017;54.350;18.532;2022-12-07T03:28:54;2.20;99.90
19732;DHT22;10017;54.350;18.532;2022-12-07T03:31:33;2.20;99.90
19732;DHT22;10017;54.350;18.532;2022-12-07T03:36:44;2.20;99.90
19732;DHT22;10017;54.350;18.532;2022-12-07T03:41:53;2.20;99.90
19732;DHT22;10017;54.350;18.532;2022-12-07T03:44:26;2.20;99.90
19732;DHT22;10017;54.350;18.532;2022-12-07T03:49:45;2.20;99.90
19732;DHT22;10017;54.350;18.532;2022-12-07T03:57:47;2.20;99.90
19732;DHT22;10017;54.350;18.532;2022-12-07T04:00:21;2.20;99.90
19732;DHT22;10017;54.350;18.532;2022-12-07T04:02:52;2.20;99.90
19732;DHT22;10017;54.350;18.532;2022-12-07T04:05:24;2.20;99.90
19732;DHT22;10017;54.350;18.532;2022-12-07T04:07:59;2.20;99.90
19732;DHT22;10017;54.350;18.532;2022-12-07T04:10:30;2.20;99.90
19732;DHT22;10017;54.350;18.532;2022-12-07T04:13:02;2.10;99.90
19732;DHT22;10017;54.350;18.532;2022-12-07T04:15:34;2.10;99.90
19732;DHT22;10017;54.350;18.532;2022-12-07T04:18:08;2.10;99.90
19732;DHT22;10017;54.350;18.532;2022-12-07T04:20:40;2.10;99.90
19732;DHT22;10017;54.350;18.532;2022-12-07T04:23:12;2.10;99.90
19732;DHT22;10017;54.350;18.532;2022-12-07T04:25:47;2.10;99.90
19732;DHT22;10017;54.350;18.532;2022-12-07T04:28:19;2.10;99.90
19732;DHT22;10017;54.350;18.532;2022-12-07T04:30:51;2.10;99.90
19732;DHT22;10017;54.350;18.532;2022-12-07T04:33:23;2.10;99.90
19732;DHT22;10017;54.350;18.532;2022-12-07T04:35:57;2.10;99.90
19732;DHT22;10017;54.350;18.532;2022-12-07T04:38:29;2.10;99.90
19732;DHT22;10017;54.350;18.532;2022-12-07T04:41:07;2.10;99.90
19732;DHT22;10017;54.350;18.532;2022-12-07T04:43:39;2.10;99.90
19732;DHT22;10017;54.350;18.532;2022-12-07T04:46:10;2.10;99.90
19732;DHT22;10017;54.350;18.532;2022-12-07T04:48:42;2.20;99.90
19732;DHT22;10017;54.350;18.532;2022-12-07T04:51:18;2.20;99.90
19732;DHT22;10017;54.350;18.532;2022-12-07T04:53:50;2.20;99.90
19732;DHT22;10017;54.350;18.532;2022-12-07T04:56:22;2.20;99.90
19732;DHT22;10017;54.350;18.532;2022-12-07T04:58:56;2.20;99.90
19732;DHT22;10017;54.350;18.532;2022-12-07T05:01:28;2.20;99.90
19732;DHT22;10017;54.350;18.532;2022-12-07T05:04:00;2.30;99.90
19732;DHT22;10017;54.350;18.532;2022-12-07T05:06:32;2.30;99.90
19732;DHT22;10017;54.350;18.532;2022-12-07T05:09:04;2.30;99.90
19732;DHT22;10017;54.350;18.532;2022-12-07T05:11:36;2.30;99.90
19732;DHT22;10017;54.350;18.532;2022-12-07T05:16:43;2.30;99.90
19732;DHT22;10017;54.350;18.532;2022-12-07T05:19:16;2.30;99.90
19732;DHT22;10017;54.350;18.532;2022-12-07T05:21:48;2.30;99.90
19732;DHT22;10017;54.350;18.532;2022-12-07T05:24:20;2.30;99.90
19732;DHT22;10017;54.350;18.532;2022-12-07T05:26:52;2.40;99.90
19732;DHT22;10017;54.350;18.532;2022-12-07T05:29:24;2.40;99.90
19732;DHT22;10017;54.350;18.532;2022-12-07T05:31:58;2.40;99.90
19732;DHT22;10017;54.350;18.532;2022-12-07T05:34:32;2.40;99.90
19732;DHT22;10017;54.350;18.532;2022-12-07T05:37:04;2.40;99.90
19732;DHT22;10017;54.350;18.532;2022-12-07T05:39:36;2.40;99.90
19732;DHT22;10017;54.350;18.532;2022-12-07T05:42:10;2.40;99.90
19732;DHT22;10017;54.350;18.532;2022-12-07T05:44:45;2.50;99.90
19732;DHT22;10017;54.350;18.532;2022-12-07T05:47:19;2.50;99.90
19732;DHT22;10017;54.350;18.532;2022-12-07T05:49:51;2.50;99.90
19732;DHT22;10017;54.350;18.532;2022-12-07T05:52:23;2.50;99.90
19732;DHT22;10017;54.350;18.532;2022-12-07T05:54:55;2.50;99.90
19732;DHT22;10017;54.350;18.532;2022-12-07T05:57:27;2.50;99.90
19732;DHT22;10017;54.350;18.532;2022-12-07T06:00:01;2.50;99.90
19732;DHT22;10017;54.350;18.532;2022-12-07T06:02:33;2.50;99.90
19732;DHT22;10017;54.350;18.532;2022-12-07T06:05:05;2.50;99.90
19732;DHT22;10017;54.350;18.532;2022-12-07T06:07:37;2.50;99.90
19732;DHT22;10017;54.350;18.532;2022-12-07T06:10:12;2.50;99.90
19732;DHT22;10017;54.350;18.532;2022-12-07T06:12:43;2.50;99.90
19732;DHT22;10017;54.350;18.532;2022-12-07T06:15:17;2.50;99.90
19732;DHT22;10017;54.350;18.532;2022-12-07T06:17:49;2.40;99.90
19732;DHT22;10017;54.350;18.532;2022-12-07T06:20:24;2.40;99.90
19732;DHT22;10017;54.350;18.532;2022-12-07T06:22:55;2.30;99.90
19732;DHT22;10017;54.350;18.532;2022-12-07T06:25:27;2.30;99.90
19732;DHT22;10017;54.350;18.532;2022-12-07T06:28:01;2.20;99.90
19732;DHT22;10017;54.350;18.532;2022-12-07T06:30:33;2.20;99.90
19732;DHT22;10017;54.350;18.532;2022-12-07T06:33:05;2.20;99.90
19732;DHT22;10017;54.350;18.532;2022-12-07T06:35:37;2.20;99.90
19732;DHT22;10017;54.350;18.532;2022-12-07T06:38:09;2.20;99.90
19732;DHT22;10017;54.350;18.532;2022-12-07T06:40:41;2.10;99.90
19732;DHT22;10017;54.350;18.532;2022-12-07T06:43:13;2.10;99.90
19732;DHT22;10017;54.350;18.532;2022-12-07T06:45:47;2.10;99.90
19732;DHT22;10017;54.350;18.532;2022-12-07T06:48:21;2.10;99.90
19732;DHT22;10017;54.350;18.532;2022-12-07T06:50:53;2.10;99.90
19732;DHT22;10017;54.350;18.532;2022-12-07T06:53:26;2.10;99.90
19732;DHT22;10017;54.350;18.532;2022-12-07T06:55:57;2.10;99.90
19732;DHT22;10017;54.350;18.532;2022-12-07T06:58:29;2.10;99.90
19732;DHT22;10017;54.350;18.532;2022-12-07T07:01:01;2.00;99.90
19732;DHT22;10017;54.350;18.532;2022-12-07T07:03:35;2.00;99.90
19732;DHT22;10017;54.350;18.532;2022-12-07T07:06:07;2.00;99.90
19732;DHT22;10017;54.350;18.532;2022-12-07T07:08:42;2.00;99.90
19732;DHT22;10017;54.350;18.532;2022-12-07T07:11:14;2.00;99.90
19732;DHT22;10017;54.350;18.532;2022-12-07T07:13:46;2.00;99.90
19732;DHT22;10017;54.350;18.532;2022-12-07T07:16:17;2.00;99.90
19732;DHT22;10017;54.350;18.532;2022-12-07T07:18:49;2.00;99.90
19732;DHT22;10017;54.350;18.532;2022-12-07T07:21:21;2.00;99.90
19732;DHT22;10017;54.350;18.532;2022-12-07T07:23:53;2.00;99.90
19732;DHT22;10017;54.350;18.532;2022-12-07T07:26:25;2.00;99.90
19732;DHT22;10017;54.350;18.532;2022-12-07T07:28:57;2.00;99.90
19732;DHT22;10017;54.350;18.532;2022-12-07T07:31:28;2.00;99.90
19732;DHT22;10017;54.350;18.532;2022-12-07T07:34:03;2.00;99.90
19732;DHT22;10017;54.350;18.532;2022-12-07T07:36:35;2.00;99.90
19732;DHT22;10017;54.350;18.532;2022-12-07T07:39:07;2.00;99.90
19732;DHT22;10017;54.350;18.532;2022-12-07T07:41:39;2.00;99.90
19732;DHT22;10017;54.350;18.532;2022-12-07T07:44:10;2.10;99.90
19732;DHT22;10017;54.350;18.532;2022-12-07T07:46:42;2.10;99.90
19732;DHT22;10017;54.350;18.532;2022-12-07T07:49:14;2.20;99.90
19732;DHT22;10017;54.350;18.532;2022-12-07T07:51:46;2.20;99.90
19732;DHT22;10017;54.350;18.532;2022-12-07T07:54:18;2.20;99.90
19732;DHT22;10017;54.350;18.532;2022-12-07T07:56:50;2.20;99.90
19732;DHT22;10017;54.350;18.532;2022-12-07T07:59:21;2.30;99.90
19732;DHT22;10017;54.350;18.532;2022-12-07T08:01:54;2.30;99.90
19732;DHT22;10017;54.350;18.532;2022-12-07T08:04:26;2.40;99.90
19732;DHT22;10017;54.350;18.532;2022-12-07T08:07:00;2.40;99.90
19732;DHT22;10017;54.350;18.532;2022-12-07T08:09:32;2.50;99.90
19732;DHT22;10017;54.350;18.532;2022-12-07T08:12:04;2.50;99.90
19732;DHT22;10017;54.350;18.532;2022-12-07T08:14:36;2.60;99.90
19732;DHT22;10017;54.350;18.532;2022-12-07T08:17:08;2.70;99.90
19732;DHT22;10017;54.350;18.532;2022-12-07T08:19:40;2.80;99.90
19732;DHT22;10017;54.350;18.532;2022-12-07T08:22:13;2.90;99.90
19732;DHT22;10017;54.350;18.532;2022-12-07T08:24:48;2.90;99.90
19732;DHT22;10017;54.350;18.532;2022-12-07T08:27:19;2.90;99.90
19732;DHT22;10017;54.350;18.532;2022-12-07T08:29:51;3.00;99.90
19732;DHT22;10017;54.350;18.532;2022-12-07T08:32:25;3.00;99.90
19732;DHT22;10017;54.350;18.532;2022-12-07T08:34:57;2.90;99.90
19732;DHT22;10017;54.350;18.532;2022-12-07T08:37:29;2.90;99.90
19732;DHT22;10017;54.350;18.532;2022-12-07T08:40:01;2.90;99.90
19732;DHT22;10017;54.350;18.532;2022-12-07T08:42:33;2.90;99.90
19732;DHT22;10017;54.350;18.532;2022-12-07T08:45:12;2.80;99.90
19732;DHT22;10017;54.350;18.532;2022-12-07T08:47:49;2.90;99.90
19732;DHT22;10017;54.350;18.532;2022-12-07T08:50:22;2.80;99.90
19732;DHT22;10017;54.350;18.532;2022-12-07T08:52:57;2.80;99.90
19732;DHT22;10017;54.350;18.532;2022-12-07T08:55:30;2.80;99.90
19732;DHT22;10017;54.350;18.532;2022-12-07T08:58:02;2.80;99.90
19732;DHT22;10017;54.350;18.532;2022-12-07T09:00:34;2.80;99.90
19732;DHT22;10017;54.350;18.532;2022-12-07T09:03:06;2.80;99.90
19732;DHT22;10017;54.350;18.532;2022-12-07T09:05:38;2.80;99.90
19732;DHT22;10017;54.350;18.532;2022-12-07T09:08:09;2.80;99.90
19732;DHT22;10017;54.350;18.532;2022-12-07T09:10:41;2.80;99.90
19732;DHT22;10017;54.350;18.532;2022-12-07T09:13:13;2.80;99.90
19732;DHT22;10017;54.350;18.532;2022-12-07T09:15:45;2.80;99.90
19732;DHT22;10017;54.350;18.532;2022-12-07T09:18:17;2.80;99.90
19732;DHT22;10017;54.350;18.532;2022-12-07T09:20:49;2.80;99.90
19732;DHT22;10017;54.350;18.532;2022-12-07T09:23:21;2.80;99.90
19732;DHT22;10017;54.350;18.532;2022-12-07T09:25:58;2.80;99.90
19732;DHT22;10017;54.350;18.532;2022-12-07T09:28:30;2.90;99.90
19732;DHT22;10017;54.350;18.532;2022-12-07T09:31:02;2.80;99.90
19732;DHT22;10017;54.350;18.532;2022-12-07T09:33:58;2.80;99.90
19732;DHT22;10017;54.350;18.532;2022-12-07T09:36:31;2.80;99.90
19732;DHT22;10017;54.350;18.532;2022-12-07T09:39:03;2.90;99.90
19732;DHT22;10017;54.350;18.532;2022-12-07T09:41:39;2.80;99.90
19732;DHT22;10017;54.350;18.532;2022-12-07T09:44:13;2.80;99.90
19732;DHT22;10017;54.350;18.532;2022-12-07T09:46:46;2.70;99.90
19732;DHT22;10017;54.350;18.532;2022-12-07T09:49:19;2.70;99.90
19732;DHT22;10017;54.350;18.532;2022-12-07T09:52:02;2.80;99.90
19732;DHT22;10017;54.350;18.532;2022-12-07T09:54:39;2.70;99.90
19732;DHT22;10017;54.350;18.532;2022-12-07T09:57:15;2.80;99.90
19732;DHT22;10017;54.350;18.532;2022-12-07T09:59:47;2.80;99.90
19732;DHT22;10017;54.350;18.532;2022-12-07T10:04:54;2.70;99.90
19732;DHT22;10017;54.350;18.532;2022-12-07T10:07:26;2.70;99.90
19732;DHT22;10017;54.350;18.532;2022-12-07T10:09:58;2.70;99.90
19732;DHT22;10017;54.350;18.532;2022-12-07T10:12:30;2.70;99.90
19732;DHT22;10017;54.350;18.532;2022-12-07T10:15:03;2.60;99.90
19732;DHT22;10017;54.350;18.532;2022-12-07T10:17:39;2.60;99.90
19732;DHT22;10017;54.350;18.532;2022-12-07T10:20:30;2.70;99.90
19732;DHT22;10017;54.350;18.532;2022-12-07T10:23:04;2.60;99.90
19732;DHT22;10017;54.350;18.532;2022-12-07T10:25:36;2.60;99.90
19732;DHT22;10017;54.350;18.532;2022-12-07T10:31:00;2.60;99.90
19732;DHT22;10017;54.350;18.532;2022-12-07T10:33:37;2.60;99.90
19732;DHT22;10017;54.350;18.532;2022-12-07T10:37:06;2.60;99.90
19732;DHT22;10017;54.350;18.532;2022-12-07T10:39:16;2.60;99.90
19732;DHT22;10017;54.350;18.532;2022-12-07T10:41:53;2.60;99.90
19732;DHT22;10017;54.350;18.532;2022-12-07T10:44:27;2.70;99.90
19732;DHT22;10017;54.350;18.532;2022-12-07T10:47:12;2.70;99.90
19732;DHT22;10017;54.350;18.532;2022-12-07T10:55:13;2.70;99.90
19732;DHT22;10017;54.350;18.532;2022-12-07T11:00:24;2.70;99.90
19732;DHT22;10017;54.350;18.532;2022-12-07T11:08:21;2.80;99.90
19732;DHT22;10017;54.350;18.532;2022-12-07T11:11:06;2.80;99.90
19732;DHT22;10017;54.350;18.532;2022-12-07T11:22:15;2.60;99.90
19732;DHT22;10017;54.350;18.532;2022-12-07T11:25:02;2.60;99.90
19732;DHT22;10017;54.350;18.532;2022-12-07T11:28:22;2.60;99.90
19732;DHT22;10017;54.350;18.532;2022-12-07T11:30:34;2.50;99.90
19732;DHT22;10017;54.350;18.532;2022-12-07T11:38:26;2.40;99.90
19732;DHT22;10017;54.350;18.532;2022-12-07T11:41:03;2.50;99.90
19732;DHT22;10017;54.350;18.532;2022-12-07T11:44:07;2.40;99.90
19732;DHT22;10017;54.350;18.532;2022-12-07T11:49:24;2.30;99.90
19732;DHT22;10017;54.350;18.532;2022-12-07T11:51:58;2.30;99.90
19732;DHT22;10017;54.350;18.532;2022-12-07T11:54:34;2.20;99.90
19732;DHT22;10017;54.350;18.532;2022-12-07T11:57:28;2.20;99.90
19732;DHT22;10017;54.350;18.532;2022-12-07T12:00:04;2.20;99.90
19732;DHT22;10017;54.350;18.532;2022-12-07T12:02:41;2.20;99.90
19732;DHT22;10017;54.350;18.532;2022-12-07T12:05:17;2.10;99.90
19732;DHT22;10017;54.350;18.532;2022-12-07T12:08:01;2.10;99.90
19732;DHT22;10017;54.350;18.532;2022-12-07T12:11:00;2.00;99.90
19732;DHT22;10017;54.350;18.532;2022-12-07T12:13:56;2.00;99.90
19732;DHT22;10017;54.350;18.532;2022-12-07T12:16:53;2.00;99.90
19732;DHT22;10017;54.350;18.532;2022-12-07T12:22:19;2.00;99.90
19732;DHT22;10017;54.350;18.532;2022-12-07T12:24:52;2.00;99.90
19732;DHT22;10017;54.350;18.532;2022-12-07T12:27:25;2.10;99.90
19732;DHT22;10017;54.350;18.532;2022-12-07T12:29:59;2.10;99.90
19732;DHT22;10017;54.350;18.532;2022-12-07T12:35:28;2.10;99.90
19732;DHT22;10017;54.350;18.532;2022-12-07T12:40:52;2.20;99.90
19732;DHT22;10017;54.350;18.532;2022-12-07T12:49:54;2.20;99.90
19732;DHT22;10017;54.350;18.532;2022-12-07T12:57:40;2.10;99.90
19732;DHT22;10017;54.350;18.532;2022-12-07T13:02:55;2.10;99.90
19732;DHT22;10017;54.350;18.532;2022-12-07T13:05:29;2.10;99.90
19732;DHT22;10017;54.350;18.532;2022-12-07T13:10:49;2.10;99.90
19732;DHT22;10017;54.350;18.532;2022-12-07T13:18:40;2.10;99.90
19732;DHT22;10017;54.350;18.532;2022-12-07T13:26:26;2.10;99.90
19732;DHT22;10017;54.350;18.532;2022-12-07T13:31:54;2.10;99.90
19732;DHT22;10017;54.350;18.532;2022-12-07T13:34:37;2.10;99.90
19732;DHT22;10017;54.350;18.532;2022-12-07T13:39:49;2.00;99.90
19732;DHT22;10017;54.350;18.532;2022-12-07T13:44:57;2.00;99.90
19732;DHT22;10017;54.350;18.532;2022-12-07T13:47:36;2.00;99.90
19732;DHT22;10017;54.350;18.532;2022-12-07T13:50:25;2.00;99.90
19732;DHT22;10017;54.350;18.532;2022-12-07T13:52:58;2.00;99.90
19732;DHT22;10017;54.350;18.532;2022-12-07T13:55:30;2.00;99.90
19732;DHT22;10017;54.350;18.532;2022-12-07T13:58:02;1.90;99.90
19732;DHT22;10017;54.350;18.532;2022-12-07T14:00:36;1.90;99.90
19732;DHT22;10017;54.350;18.532;2022-12-07T14:05:44;1.80;99.90
19732;DHT22;10017;54.350;18.532;2022-12-07T14:16:04;1.70;99.90
19732;DHT22;10017;54.350;18.532;2022-12-07T14:18:42;1.70;99.90
19732;DHT22;10017;54.350;18.532;2022-12-07T14:21:16;1.60;99.90
19732;DHT22;10017;54.350;18.532;2022-12-07T14:26:40;1.60;99.90
19732;DHT22;10017;54.350;18.532;2022-12-07T14:31:57;1.60;99.90
19732;DHT22;10017;54.350;18.532;2022-12-07T14:34:29;1.50;99.90
19732;DHT22;10017;54.350;18.532;2022-12-07T14:37:00;1.50;99.90
19732;DHT22;10017;54.350;18.532;2022-12-07T14:39:32;1.50;99.90
19732;DHT22;10017;54.350;18.532;2022-12-07T14:42:04;1.60;99.90
19732;DHT22;10017;54.350;18.532;2022-12-07T14:44:36;1.60;99.90
19732;DHT22;10017;54.350;18.532;2022-12-07T14:47:09;1.60;99.90
19732;DHT22;10017;54.350;18.532;2022-12-07T14:50:01;1.60;99.90
19732;DHT22;10017;54.350;18.532;2022-12-07T14:52:37;1.60;99.90
19732;DHT22;10017;54.350;18.532;2022-12-07T14:55:33;1.70;99.90
19732;DHT22;10017;54.350;18.532;2022-12-07T14:58:05;1.70;99.90
19732;DHT22;10017;54.350;18.532;2022-12-07T15:00:37;1.70;99.90
19732;DHT22;10017;54.350;18.532;2022-12-07T15:03:09;1.60;99.90
19732;DHT22;10017;54.350;18.532;2022-12-07T15:05:41;1.70;99.90
19732;DHT22;10017;54.350;18.532;2022-12-07T15:08:13;1.60;99.90
19732;DHT22;10017;54.350;18.532;2022-12-07T15:10:45;1.60;99.90
19732;DHT22;10017;54.350;18.532;2022-12-07T15:13:17;1.60;99.90
19732;DHT22;10017;54.350;18.532;2022-12-07T15:16:10;1.60;99.90
19732;DHT22;10017;54.350;18.532;2022-12-07T15:18:46;1.60;99.90
19732;DHT22;10017;54.350;18.532;2022-12-07T15:21:39;1.60;99.90
19732;DHT22;10017;54.350;18.532;2022-12-07T15:24:11;1.60;99.90
19732;DHT22;10017;54.350;18.532;2022-12-07T15:26:43;1.60;99.90
19732;DHT22;10017;54.350;18.532;2022-12-07T15:29:15;1.60;99.90
19732;DHT22;10017;54.350;18.532;2022-12-07T15:31:53;1.60;99.90
19732;DHT22;10017;54.350;18.532;2022-12-07T15:34:28;1.60;99.90
19732;DHT22;10017;54.350;18.532;2022-12-07T15:37:10;1.60;99.90
19732;DHT22;10017;54.350;18.532;2022-12-07T15:39:42;1.60;99.90
19732;DHT22;10017;54.350;18.532;2022-12-07T15:42:14;1.60;99.90
19732;DHT22;10017;54.350;18.532;2022-12-07T15:44:46;1.60;99.90
19732;DHT22;10017;54.350;18.532;2022-12-07T15:47:39;1.60;99.90
19732;DHT22;10017;54.350;18.532;2022-12-07T15:50:31;1.60;99.90
19732;DHT22;10017;54.350;18.532;2022-12-07T15:53:03;1.60;99.90
19732;DHT22;10017;54.350;18.532;2022-12-07T15:55:35;1.60;99.90
19732;DHT22;10017;54.350;18.532;2022-12-07T15:58:09;1.60;99.90
19732;DHT22;10017;54.350;18.532;2022-12-07T16:00:41;1.60;99.90
19732;DHT22;10017;54.350;18.532;2022-12-07T16:03:13;1.60;99.90
19732;DHT22;10017;54.350;18.532;2022-12-07T16:05:49;1.60;99.90
19732;DHT22;10017;54.350;18.532;2022-12-07T16:08:21;1.50;99.90
19732;DHT22;10017;54.350;18.532;2022-12-07T16:10:53;1.50;99.90
19732;DHT22;10017;54.350;18.532;2022-12-07T16:13:26;1.50;99.90
19732;DHT22;10017;54.350;18.532;2022-12-07T16:15:58;1.50;99.90
19732;DHT22;10017;54.350;18.532;2022-12-07T16:18:33;1.50;99.90
19732;DHT22;10017;54.350;18.532;2022-12-07T16:21:05;1.50;99.90
19732;DHT22;10017;54.350;18.532;2022-12-07T16:23:37;1.50;99.90
19732;DHT22;10017;54.350;18.532;2022-12-07T16:26:13;1.50;99.90
19732;DHT22;10017;54.350;18.532;2022-12-07T16:28:47;1.50;99.90
19732;DHT22;10017;54.350;18.532;2022-12-07T16:31:21;1.50;99.90
19732;DHT22;10017;54.350;18.532;2022-12-07T16:33:58;1.50;99.90
19732;DHT22;10017;54.350;18.532;2022-12-07T16:36:30;1.50;99.90
19732;DHT22;10017;54.350;18.532;2022-12-07T16:39:22;1.50;99.90
19732;DHT22;10017;54.350;18.532;2022-12-07T16:41:54;1.50;99.90
19732;DHT22;10017;54.350;18.532;2022-12-07T16:44:26;1.50;99.90
19732;DHT22;10017;54.350;18.532;2022-12-07T16:46:58;1.50;99.90
19732;DHT22;10017;54.350;18.532;2022-12-07T16:49:31;1.50;99.90
19732;DHT22;10017;54.350;18.532;2022-12-07T16:52:03;1.40;99.90
19732;DHT22;10017;54.350;18.532;2022-12-07T16:54:52;1.40;99.90
19732;DHT22;10017;54.350;18.532;2022-12-07T16:57:23;1.40;99.90
19732;DHT22;10017;54.350;18.532;2022-12-07T16:59:55;1.40;99.90
19732;DHT22;10017;54.350;18.532;2022-12-07T17:02:27;1.40;99.90
19732;DHT22;10017;54.350;18.532;2022-12-07T17:04:59;1.40;99.90
19732;DHT22;10017;54.350;18.532;2022-12-07T17:07:31;1.40;99.90
19732;DHT22;10017;54.350;18.532;2022-12-07T17:10:03;1.40;99.90
19732;DHT22;10017;54.350;18.532;2022-12-07T17:12:35;1.40;99.90
19732;DHT22;10017;54.350;18.532;2022-12-07T17:15:08;1.30;99.90
19732;DHT22;10017;54.350;18.532;2022-12-07T17:17:56;1.30;99.90
19732;DHT22;10017;54.350;18.532;2022-12-07T17:20:28;1.30;99.90
19732;DHT22;10017;54.350;18.532;2022-12-07T17:23:00;1.30;99.90
19732;DHT22;10017;54.350;18.532;2022-12-07T17:25:31;1.20;99.90
19732;DHT22;10017;54.350;18.532;2022-12-07T17:28:03;1.20;99.90
19732;DHT22;10017;54.350;18.532;2022-12-07T17:30:35;1.10;99.90
19732;DHT22;10017;54.350;18.532;2022-12-07T17:33:07;1.10;99.90
19732;DHT22;10017;54.350;18.532;2022-12-07T17:35:39;1.00;99.90
19732;DHT22;10017;54.350;18.532;2022-12-07T17:38:10;0.90;99.90
19732;DHT22;10017;54.350;18.532;2022-12-07T17:40:45;0.90;99.90
19732;DHT22;10017;54.350;18.532;2022-12-07T17:43:16;0.90;99.90
19732;DHT22;10017;54.350;18.532;2022-12-07T17:45:48;0.90;99.90
19732;DHT22;10017;54.350;18.532;2022-12-07T17:48:20;0.90;99.90
19732;DHT22;10017;54.350;18.532;2022-12-07T17:50:58;0.90;99.90
19732;DHT22;10017;54.350;18.532;2022-12-07T17:53:49;0.90;99.90
19732;DHT22;10017;54.350;18.532;2022-12-07T17:56:21;0.90;99.90
19732;DHT22;10017;54.350;18.532;2022-12-07T17:59:00;0.90;99.90
19732;DHT22;10017;54.350;18.532;2022-12-07T18:01:32;0.90;99.90
19732;DHT22;10017;54.350;18.532;2022-12-07T18:04:05;0.90;99.90
19732;DHT22;10017;54.350;18.532;2022-12-07T18:06:37;0.90;99.90
19732;DHT22;10017;54.350;18.532;2022-12-07T18:09:09;0.90;99.90
19732;DHT22;10017;54.350;18.532;2022-12-07T18:11:41;0.90;99.90
19732;DHT22;10017;54.350;18.532;2022-12-07T18:14:13;0.90;99.90
19732;DHT22;10017;54.350;18.532;2022-12-07T18:16:45;1.00;99.90
19732;DHT22;10017;54.350;18.532;2022-12-07T18:19:19;1.00;99.90
19732;DHT22;10017;54.350;18.532;2022-12-07T18:21:53;1.00;99.90
19732;DHT22;10017;54.350;18.532;2022-12-07T18:24:25;1.00;99.90
19732;DHT22;10017;54.350;18.532;2022-12-07T18:27:05;1.00;99.90
19732;DHT22;10017;54.350;18.532;2022-12-07T18:29:37;1.00;99.90
19732;DHT22;10017;54.350;18.532;2022-12-07T18:32:09;1.10;99.90